Time;durP1;ratioP1;P1;durP2;ratioP2;P2;SDS_P1;SDS_P2;PMS_P1;PMS_P2;Temp;Humidity;BMP_temperature;BMP_pressure;BME280_temperature;BME280_humidity;BME280_pressure;Samples;Min_cycle;Max_cycle;Signal;HPM_P1;HPM_P2
2023/03/29 00:01:42;;;;;;;2.27;2.07;;;;;;;10.45;nan;99812.31;4926122;29;20242;-75
2023/03/29 00:04:08;;;;;;;3.80;2.30;;;;;;;10.43;nan;99832.59;4924182;29;20547;-75
2023/03/29 00:06:34;;;;;;;3.20;2.00;;;;;;;10.41;nan;99817.75;4923896;29;20209;-75
2023/03/29 00:09:04;;;;;;;4.20;2.13;;;;;;;10.41;nan;99819.56;4924419;29;20208;-75
2023/03/29 00:11:29;;;;;;;2.33;2.13;;;;;;;10.40;nan;99833.63;4921348;29;21009;-75
2023/03/29 00:13:55;;;;;;;4.47;2.20;;;;;;;10.36;nan;99827.69;4923667;29;20262;-75
2023/03/29 00:16:20;;;;;;;3.23;2.47;;;;;;;10.33;nan;99829.66;4922819;29;20214;-75
2023/03/29 00:18:46;;;;;;;4.20;2.73;;;;;;;10.31;nan;99818.41;4922351;29;20200;-75
2023/03/29 00:21:12;;;;;;;3.90;2.07;;;;;;;10.34;nan;99826.97;4923397;29;20238;-75
2023/03/29 00:23:37;;;;;;;2.70;1.87;;;;;;;10.35;nan;99826.03;4920957;29;20321;-75
2023/03/29 00:26:03;;;;;;;4.13;2.47;;;;;;;10.37;nan;99818.06;4908931;29;20216;-75
2023/03/29 00:28:28;;;;;;;2.83;1.97;;;;;;;10.38;nan;99831.09;4918716;29;20216;-75
2023/03/29 00:31:04;;;;;;;3.80;2.00;;;;;;;10.37;nan;99854.81;4918628;29;20270;-74
2023/03/29 00:33:30;;;;;;;2.67;2.47;;;;;;;10.29;nan;99868.41;4919637;29;20306;-75
2023/03/29 00:35:55;;;;;;;3.67;2.70;;;;;;;10.22;nan;99825.00;4938496;29;20521;-75
2023/03/29 00:38:21;;;;;;;2.63;1.90;;;;;;;10.08;nan;99823.19;4939220;29;20890;-75
2023/03/29 00:40:46;;;;;;;4.60;2.50;;;;;;;10.00;nan;99814.09;4925236;29;20874;-75
2023/03/29 00:43:13;;;;;;;1.90;1.80;;;;;;;10.00;nan;99816.72;4924882;29;20228;-76
2023/03/29 00:45:39;;;;;;;2.60;1.80;;;;;;;10.04;nan;99821.66;4918235;29;20192;-75
2023/03/29 00:48:07;;;;;;;1.60;1.50;;;;;;;10.08;nan;99822.34;4918337;29;20226;-75
2023/03/29 00:50:44;;;;;;;2.03;1.83;;;;;;;10.12;nan;99811.56;4922078;28;20224;-75
2023/03/29 00:53:16;;;;;;;2.88;2.08;;;;;;;10.13;nan;99834.28;4924299;29;20222;-75
2023/03/29 00:55:56;;;;;;;1.55;1.40;;;;;;;10.12;nan;99798.44;4919515;29;20221;-75
2023/03/29 00:58:31;;;;;;;5.43;1.73;;;;;;;10.09;nan;99798.63;4917768;29;20213;-76
2023/03/29 01:01:16;;;;;;;1.50;1.40;;;;;;;10.15;nan;99805.31;4916159;29;20556;-76
2023/03/29 01:03:48;;;;;;;2.25;2.05;;;;;;;10.20;nan;99798.00;4923024;29;20224;-75
2023/03/29 01:06:16;;;;;;;2.40;2.20;;;;;;;10.24;nan;99789.03;4919270;29;20229;-75
2023/03/29 01:08:55;;;;;;;5.40;2.60;;;;;;;10.26;nan;99781.91;4935100;29;20203;-76
2023/03/29 01:11:43;;;;;;;1.70;1.60;;;;;;;10.29;nan;99784.38;4914514;29;20193;-75
2023/03/29 01:14:18;;;;;;;1.63;1.30;;;;;;;10.32;nan;99792.06;4922813;29;20227;-75
2023/03/29 01:16:44;;;;;;;2.25;2.05;;;;;;;10.35;nan;99786.63;4932003;28;20206;-75
2023/03/29 01:19:14;;;;;;;1.90;1.30;;;;;;;10.35;nan;99783.16;4933147;29;20198;-75
2023/03/29 01:21:48;;;;;;;2.17;1.40;;;;;;;10.36;nan;99782.22;4915496;29;20221;-75
2023/03/29 01:24:19;;;;;;;2.22;1.45;;;;;;;10.34;nan;99781.47;4920508;29;20246;-75
2023/03/29 01:26:54;;;;;;;2.70;2.40;;;;;;;10.34;nan;99779.69;4935486;29;20207;-76
2023/03/29 01:29:38;;;;;;;1.90;1.80;;;;;;;10.33;nan;99778.00;4939082;29;20749;-76
2023/03/29 01:32:13;;;;;;;1.85;1.40;;;;;;;10.35;nan;99777.91;4934418;29;20682;-75
2023/03/29 01:34:50;;;;;;;3.03;1.70;;;;;;;10.37;nan;99776.88;4919591;29;20545;-75
2023/03/29 01:37:28;;;;;;;3.22;1.60;;;;;;;10.36;nan;99763.84;4918013;29;20636;-75
2023/03/29 01:39:53;;;;;;;1.80;1.70;;;;;;;10.32;nan;99759.72;4917165;29;20200;-76
2023/03/29 01:42:52;;;;;;;2.10;1.90;;;;;;;10.32;nan;99760.56;4919482;29;20215;-75
2023/03/29 01:45:40;;;;;;;1.55;1.20;;;;;;;10.31;nan;99755.38;4911270;29;20295;-75
2023/03/29 01:48:13;;;;;;;1.38;1.27;;;;;;;10.30;nan;99765.06;4913081;29;20214;-76
2023/03/29 01:50:48;;;;;;;2.88;2.67;;;;;;;10.32;nan;99767.59;4918976;29;20219;-75
2023/03/29 01:53:23;;;;;;;2.17;1.88;;;;;;;10.33;nan;99767.50;4916098;29;20226;-76
2023/03/29 01:55:53;;;;;;;2.22;1.70;;;;;;;10.36;nan;99766.47;4921797;29;20216;-76
2023/03/29 01:58:22;;;;;;;4.25;1.70;;;;;;;10.37;nan;99763.75;4918012;29;21457;-76
2023/03/29 02:00:52;;;;;;;2.22;1.48;;;;;;;10.36;nan;99756.81;4934854;29;20199;-76
2023/03/29 02:03:25;;;;;;;1.48;1.33;;;;;;;10.36;nan;99755.97;4915437;29;20278;-76
2023/03/29 02:05:55;;;;;;;3.60;1.50;;;;;;;10.36;nan;99763.84;4922914;29;20264;-76
2023/03/29 02:08:26;;;;;;;4.35;1.48;;;;;;;10.34;nan;99761.31;4919600;29;20191;-76
2023/03/29 02:10:53;;;;;;;1.92;1.58;;;;;;;10.32;nan;99763.19;4915938;29;20648;-76
2023/03/29 02:13:19;;;;;;;3.15;1.50;;;;;;;10.32;nan;99751.84;4922429;29;20226;-76
2023/03/29 02:15:48;;;;;;;5.18;1.88;;;;;;;10.30;nan;99757.19;4933819;29;20222;-76
2023/03/29 02:18:16;;;;;;;1.70;1.60;;;;;;;10.30;nan;99762.44;4934522;29;20853;-76
2023/03/29 02:20:46;;;;;;;2.55;2.03;;;;;;;10.31;nan;99744.88;4925086;29;20203;-76
2023/03/29 02:23:33;;;;;;;2.53;1.70;;;;;;;10.32;nan;99751.84;4921531;29;20221;-76
2023/03/29 02:25:59;;;;;;;1.70;1.15;;;;;;;10.33;nan;99737.78;4918935;29;20688;-75
2023/03/29 02:28:26;;;;;;;1.70;1.58;;;;;;;10.34;nan;99739.44;4939786;29;20201;-75
2023/03/29 02:31:14;;;;;;;3.10;1.80;;;;;;;10.34;nan;99740.31;4915629;29;20775;-76
2023/03/29 02:33:50;;;;;;;1.77;1.35;;;;;;;10.33;nan;99735.16;4921057;29;20232;-75
2023/03/29 02:36:45;;;;;;;2.22;1.52;;;;;;;10.34;nan;99734.19;4918148;29;20205;-75
2023/03/29 02:39:14;;;;;;;2.05;1.50;;;;;;;10.34;nan;99739.44;4937395;29;20199;-75
2023/03/29 02:41:42;;;;;;;1.23;1.10;;;;;;;10.37;nan;99740.13;4925932;29;20238;-75
2023/03/29 02:44:12;;;;;;;3.60;1.77;;;;;;;10.44;nan;99737.97;4913176;29;20774;-75
2023/03/29 02:46:41;;;;;;;2.40;1.63;;;;;;;10.49;nan;99738.53;4915575;29;20206;-76
2023/03/29 02:49:09;;;;;;;1.30;1.20;;;;;;;10.59;nan;99746.69;4920670;29;20202;-75
2023/03/29 02:51:35;;;;;;;1.45;1.33;;;;;;;10.71;nan;99732.78;4920419;29;20613;-75
2023/03/29 02:54:10;;;;;;;1.95;1.60;;;;;;;10.80;nan;99724.34;4915677;29;20239;-75
2023/03/29 02:56:46;;;;;;;1.33;1.00;;;;;;;10.82;nan;99725.06;4912513;29;20266;-75
2023/03/29 02:59:12;;;;;;;2.08;1.50;;;;;;;10.79;nan;99730.53;4922562;29;20265;-76
2023/03/29 03:01:41;;;;;;;2.13;2.03;;;;;;;10.78;nan;99723.59;4929804;29;20219;-76
2023/03/29 03:04:08;;;;;;;1.80;1.48;;;;;;;10.77;nan;99736.81;4917643;29;20437;-76
2023/03/29 03:06:36;;;;;;;2.13;1.70;;;;;;;10.76;nan;99724.63;4938900;29;20205;-75
2023/03/29 03:09:03;;;;;;;3.00;1.70;;;;;;;10.74;nan;99727.34;4921431;29;20206;-75
2023/03/29 03:11:32;;;;;;;2.72;1.55;;;;;;;10.74;nan;99716.00;4916954;29;20196;-75
2023/03/29 03:13:57;;;;;;;1.88;1.45;;;;;;;10.73;nan;99720.41;4931304;29;20748;-75
2023/03/29 03:16:23;;;;;;;3.10;1.60;;;;;;;10.73;nan;99714.31;4910929;29;20691;-76
2023/03/29 03:18:50;;;;;;;1.40;1.27;;;;;;;10.73;nan;99719.56;4919578;29;20203;-75
2023/03/29 03:21:17;;;;;;;1.30;1.17;;;;;;;10.73;nan;99719.56;4940367;28;20191;-75
2023/03/29 03:23:44;;;;;;;1.30;1.20;;;;;;;10.74;nan;99718.63;4920463;29;20220;-76
2023/03/29 03:26:10;;;;;;;1.80;1.70;;;;;;;10.74;nan;99716.81;4932660;29;20214;-75
2023/03/29 03:28:37;;;;;;;3.70;1.60;;;;;;;10.74;nan;99711.56;4913037;29;20191;-76
2023/03/29 03:31:06;;;;;;;1.95;1.38;;;;;;;10.73;nan;99709.91;4920051;29;20201;-76
2023/03/29 03:34:01;;;;;;;2.13;1.52;;;;;;;10.74;nan;99716.00;4974966;23;20269;-80
2023/03/29 03:36:55;;;;;;;1.58;1.42;;;;;;;10.74;nan;99716.81;4889247;29;20296;-80
2023/03/29 03:39:21;;;;;;;1.53;1.37;;;;;;;10.75;nan;99715.06;4895970;29;20291;-78
2023/03/29 03:41:47;;;;;;;1.67;1.47;;;;;;;10.74;nan;99722.09;4905411;29;20212;-78
2023/03/29 03:44:12;;;;;;;3.10;1.70;;;;;;;10.74;nan;99708.94;4922467;29;20226;-80
2023/03/29 03:46:39;;;;;;;2.40;1.93;;;;;;;10.73;nan;99720.41;4915324;29;20292;-80
2023/03/29 03:49:04;;;;;;;4.88;2.50;;;;;;;10.71;nan;99719.66;4901589;29;20510;-79
2023/03/29 03:51:33;;;;;;;2.97;2.33;;;;;;;10.68;nan;99711.97;4913600;29;20204;-79
2023/03/29 03:53:58;;;;;;;1.63;1.53;;;;;;;10.65;nan;99712.16;4897041;29;20278;-79
2023/03/29 03:56:44;;;;;;;2.78;1.60;;;;;;;10.58;nan;99719.56;4899153;29;20675;-79
2023/03/29 03:59:14;;;;;;;3.00;1.52;;;;;;;10.55;nan;99706.63;4898367;29;20207;-79
2023/03/29 04:01:54;;;;;;;5.38;1.80;;;;;;;10.56;nan;99712.75;4913169;29;20220;-79
2023/03/29 04:04:22;;;;;;;2.42;1.50;;;;;;;10.57;nan;99706.53;4893640;29;20447;-79
2023/03/29 04:07:01;;;;;;;2.55;1.13;;;;;;;10.64;nan;99699.97;4906902;29;20730;-79
2023/03/29 04:10:03;;;;;;;1.48;1.00;;;;;;;10.70;nan;99689.06;4909362;29;20211;-79
2023/03/29 04:12:29;;;;;;;1.30;1.20;;;;;;;10.78;nan;99699.09;4921287;29;20568;-79
2023/03/29 04:14:54;;;;;;;1.50;1.20;;;;;;;10.84;nan;99703.97;4921716;29;20305;-79
2023/03/29 04:17:21;;;;;;;1.50;1.20;;;;;;;10.92;nan;99703.50;4903324;29;20293;-79
2023/03/29 04:19:55;;;;;;;1.83;1.40;;;;;;;10.98;nan;99697.84;4919382;29;20207;-79
2023/03/29 04:22:20;;;;;;;2.85;1.65;;;;;;;11.03;nan;99688.72;4919182;29;20256;-79
2023/03/29 04:24:47;;;;;;;2.05;1.70;;;;;;;11.08;nan;99688.44;4906602;29;20231;-80
2023/03/29 04:27:31;;;;;;;2.70;1.75;;;;;;;11.14;nan;99692.44;4905778;29;20628;-80
2023/03/29 04:29:59;;;;;;;2.15;1.65;;;;;;;11.20;nan;99684.16;4906459;29;20217;-79
2023/03/29 04:32:45;;;;;;;1.95;1.20;;;;;;;11.28;nan;99684.50;4904962;29;20207;-79
2023/03/29 04:35:10;;;;;;;3.13;1.20;;;;;;;11.34;nan;99693.75;4919048;29;20244;-79
2023/03/29 04:37:39;;;;;;;2.83;1.87;;;;;;;11.38;nan;99698.72;4904467;29;20208;-80
2023/03/29 04:40:08;;;;;;;1.83;1.45;;;;;;;11.40;nan;99688.13;4922742;29;20216;-79
2023/03/29 04:42:46;;;;;;;2.47;1.63;;;;;;;11.43;nan;99687.91;4911273;29;20217;-79
2023/03/29 04:45:18;;;;;;;1.98;1.40;;;;;;;11.43;nan;99686.13;4906150;29;20221;-80
2023/03/29 04:48:04;;;;;;;2.95;2.38;;;;;;;11.45;nan;99681.63;4906136;29;20209;-81
2023/03/29 04:50:30;;;;;;;1.73;1.50;;;;;;;11.48;nan;99688.47;4905492;29;22894;-80
2023/03/29 04:52:56;;;;;;;2.33;1.58;;;;;;;11.52;nan;99695.19;4908124;29;20640;-81
2023/03/29 04:55:21;;;;;;;2.10;1.70;;;;;;;11.53;nan;99710.03;4906651;29;20802;-80
2023/03/29 04:57:57;;;;;;;2.58;1.30;;;;;;;11.57;nan;99700.16;4921487;29;20221;-80
2023/03/29 05:00:30;;;;;;;3.85;1.67;;;;;;;11.60;nan;99690.25;4910031;29;20201;-80
2023/03/29 05:02:56;;;;;;;1.95;1.20;;;;;;;11.64;nan;99686.50;4909762;29;20702;-80
2023/03/29 05:05:22;;;;;;;1.50;1.40;;;;;;;11.67;nan;99690.72;4900157;29;20986;-80
2023/03/29 05:07:49;;;;;;;2.08;1.45;;;;;;;11.70;nan;99695.75;4918358;29;20293;-79
2023/03/29 05:10:18;;;;;;;1.83;1.50;;;;;;;11.71;nan;99690.38;4905941;29;20546;-80
2023/03/29 05:12:43;;;;;;;4.20;1.43;;;;;;;11.76;nan;99695.34;4907663;29;20685;-79
2023/03/29 05:15:09;;;;;;;2.80;1.50;;;;;;;11.77;nan;99704.91;4922740;29;20230;-80
2023/03/29 05:17:35;;;;;;;2.30;1.60;;;;;;;11.79;nan;99700.41;4906294;29;20218;-80
2023/03/29 05:20:09;;;;;;;3.35;1.50;;;;;;;11.80;nan;99701.22;4911951;29;20216;-80
2023/03/29 05:22:35;;;;;;;1.60;1.40;;;;;;;11.84;nan;99706.19;4920960;29;20213;-81
2023/03/29 05:25:00;;;;;;;1.38;1.00;;;;;;;11.87;nan;99702.56;4922192;29;20274;-80
2023/03/29 05:27:26;;;;;;;1.97;1.43;;;;;;;11.91;nan;99699.63;4920698;29;20569;-80
2023/03/29 05:30:04;;;;;;;1.67;1.40;;;;;;;11.94;nan;99694.13;4905482;29;21484;-80
2023/03/29 05:32:37;;;;;;;1.85;1.35;;;;;;;12.00;nan;99697.31;4906018;29;20287;-81
2023/03/29 05:35:04;;;;;;;1.80;1.50;;;;;;;12.02;nan;99691.00;4920140;29;20457;-79
2023/03/29 05:37:33;;;;;;;1.77;1.45;;;;;;;12.07;nan;99703.81;4924043;29;20217;-81
2023/03/29 05:40:05;;;;;;;2.03;1.80;;;;;;;12.12;nan;99693.81;4925494;29;20225;-81
2023/03/29 05:42:31;;;;;;;2.97;1.40;;;;;;;12.15;nan;99683.94;4924306;29;20225;-81
2023/03/29 05:45:03;;;;;;;2.97;1.48;;;;;;;12.20;nan;99699.41;4927685;29;20515;-81
2023/03/29 05:47:28;;;;;;;1.83;1.58;;;;;;;12.24;nan;99697.41;4909953;29;20304;-82
2023/03/29 05:49:54;;;;;;;2.53;1.70;;;;;;;12.25;nan;99697.28;4927964;29;20259;-81
2023/03/29 05:52:21;;;;;;;2.45;1.30;;;;;;;12.27;nan;99694.56;4910195;29;20316;-80
2023/03/29 05:54:46;;;;;;;2.20;1.37;;;;;;;12.27;nan;99700.66;4928106;29;20256;-82
2023/03/29 05:57:12;;;;;;;2.17;1.40;;;;;;;12.30;nan;99703.09;4924323;29;20207;-83
2023/03/29 05:59:39;;;;;;;2.22;1.40;;;;;;;12.32;nan;99705.63;4929333;29;20289;-82
2023/03/29 06:02:05;;;;;;;3.47;1.52;;;;;;;12.34;nan;99701.94;4931670;29;20507;-83
2023/03/29 06:04:34;;;;;;;1.90;1.60;;;;;;;12.36;nan;99699.19;4915953;29;20222;-83
2023/03/29 06:07:19;;;;;;;1.60;1.20;;;;;;;12.39;nan;99696.34;4916775;29;20264;-82
2023/03/29 06:10:08;;;;;;;4.03;1.88;;;;;;;12.42;nan;99685.56;4914938;29;20241;-83
2023/03/29 06:12:34;;;;;;;1.80;1.42;;;;;;;12.45;nan;99687.16;4913517;29;20234;-83
2023/03/29 06:15:03;;;;;;;2.30;1.50;;;;;;;12.48;nan;99685.16;4919029;29;20233;-82
2023/03/29 06:17:55;;;;;;;1.73;1.35;;;;;;;12.52;nan;99694.53;4905868;29;20479;-81
2023/03/29 06:20:20;;;;;;;2.20;1.60;;;;;;;12.57;nan;99694.22;4925784;29;20224;-82
2023/03/29 06:22:52;;;;;;;2.15;1.40;;;;;;;12.65;nan;99689.25;4923992;29;20216;-82
2023/03/29 06:25:18;;;;;;;3.33;1.58;;;;;;;12.73;nan;99697.44;4906946;29;20217;-82
2023/03/29 06:27:46;;;;;;;2.30;1.20;;;;;;;12.79;nan;99696.16;4897070;29;20770;-82
2023/03/29 06:30:14;;;;;;;2.20;1.55;;;;;;;12.86;nan;99707.13;4921232;29;20205;-81
2023/03/29 06:32:42;;;;;;;2.47;1.70;;;;;;;12.90;nan;99703.31;4909203;29;20210;-82
2023/03/29 06:35:20;;;;;;;4.60;1.40;;;;;;;12.97;nan;99704.56;4924626;29;20447;-82
2023/03/29 06:37:53;;;;;;;1.65;1.55;;;;;;;13.01;nan;99701.56;4909739;29;20474;-82
2023/03/29 06:40:30;;;;;;;1.42;1.27;;;;;;;13.05;nan;99703.03;4908121;29;20199;-82
2023/03/29 06:42:56;;;;;;;1.55;1.45;;;;;;;13.09;nan;99708.09;4923835;29;20197;-82
2023/03/29 06:45:40;;;;;;;1.23;1.13;;;;;;;13.12;nan;99713.13;4908006;29;20238;-82
2023/03/29 06:48:15;;;;;;;2.70;1.17;;;;;;;13.12;nan;99710.50;4921096;29;20319;-82
2023/03/29 06:50:41;;;;;;;3.33;1.60;;;;;;;13.16;nan;99698.78;4918605;29;20573;-82
2023/03/29 06:53:14;;;;;;;3.58;1.60;;;;;;;13.20;nan;99698.44;4921632;29;20199;-82
2023/03/29 06:55:41;;;;;;;3.50;1.35;;;;;;;13.28;nan;99704.06;4908871;29;20216;-82
2023/03/29 06:58:29;;;;;;;5.03;1.70;;;;;;;13.36;nan;99711.38;4908620;29;20291;-82
2023/03/29 07:01:01;;;;;;;3.40;2.63;;;;;;;13.43;nan;99702.06;4905751;29;20271;-82
2023/03/29 07:03:44;;;;;;;4.25;3.25;;;;;;;13.54;nan;99716.28;4913584;29;20259;-82
2023/03/29 07:06:11;;;;;;;1.83;1.73;;;;;;;13.61;nan;99714.84;4913271;29;20220;-82
2023/03/29 07:08:42;;;;;;;2.95;2.08;;;;;;;13.66;nan;99713.56;4921139;29;20440;-82
2023/03/29 07:11:17;;;;;;;2.58;1.60;;;;;;;13.72;nan;99721.03;4905418;29;20191;-83
2023/03/29 07:13:57;;;;;;;2.22;1.80;;;;;;;13.75;nan;99722.59;4928420;29;20207;-82
2023/03/29 07:16:22;;;;;;;3.42;1.65;;;;;;;13.79;nan;99723.19;4910362;29;20616;-78
2023/03/29 07:19:08;;;;;;;1.30;1.20;;;;;;;13.80;nan;99717.81;4909498;29;20180;-78
2023/03/29 07:21:57;;;;;;;2.45;1.60;;;;;;;13.81;nan;99716.84;4908796;29;20242;-78
2023/03/29 07:24:37;;;;;;;4.80;1.70;;;;;;;13.82;nan;99722.94;4920983;29;20211;-79
2023/03/29 07:27:12;;;;;;;2.22;1.55;;;;;;;13.83;nan;99730.78;4922828;29;20215;-81
2023/03/29 07:29:38;;;;;;;1.80;1.45;;;;;;;13.84;nan;99731.59;4908018;29;20274;-81
2023/03/29 07:32:04;;;;;;;1.05;0.95;;;;;;;13.85;nan;99734.16;4907998;29;20518;-79
2023/03/29 07:34:47;;;;;;;2.38;1.42;;;;;;;13.86;nan;99732.34;4906993;29;20527;-79
2023/03/29 07:37:23;;;;;;;4.72;1.70;;;;;;;13.88;nan;99735.69;4909163;29;20192;-78
2023/03/29 07:39:51;;;;;;;1.63;1.30;;;;;;;13.90;nan;99741.69;4908539;29;20241;-79
2023/03/29 07:42:35;;;;;;;2.25;1.52;;;;;;;13.90;nan;99753.09;4906412;29;20200;-79
2023/03/29 07:45:07;;;;;;;3.20;1.83;;;;;;;13.94;nan;99749.28;4903099;29;20202;-78
2023/03/29 07:47:40;;;;;;;2.55;1.70;;;;;;;13.99;nan;99740.16;4919225;29;20191;-78
2023/03/29 07:50:08;;;;;;;1.52;1.40;;;;;;;14.03;nan;99744.25;4904448;29;20627;-78
2023/03/29 07:52:38;;;;;;;2.05;1.30;;;;;;;14.08;nan;99745.59;4902683;29;20199;-80
2023/03/29 07:55:11;;;;;;;2.05;1.42;;;;;;;14.13;nan;99742.63;4921392;29;20222;-79
2023/03/29 07:58:00;;;;;;;2.03;1.55;;;;;;;14.19;nan;99747.41;4904909;29;20209;-79
2023/03/29 08:00:54;;;;;;;3.35;1.45;;;;;;;14.27;nan;99742.38;4906061;29;20217;-80
2023/03/29 08:03:46;;;;;;;2.08;1.40;;;;;;;14.35;nan;99737.34;4897117;29;20294;-81
2023/03/29 08:06:12;;;;;;;1.75;1.50;;;;;;;14.44;nan;99745.53;4917337;29;20190;-80
2023/03/29 08:08:38;;;;;;;1.77;1.67;;;;;;;14.49;nan;99740.72;4921644;29;20191;-79
2023/03/29 08:11:09;;;;;;;3.03;1.55;;;;;;;14.54;nan;99742.09;4917904;29;20181;-80
2023/03/29 08:13:58;;;;;;;1.33;1.20;;;;;;;14.59;nan;99744.38;4916684;29;20189;-80
2023/03/29 08:16:32;;;;;;;3.95;1.58;;;;;;;14.66;nan;99750.84;4906561;29;21350;-79
2023/03/29 08:19:09;;;;;;;1.73;1.63;;;;;;;14.73;nan;99752.06;4909905;29;20996;-80
2023/03/29 08:21:52;;;;;;;1.85;1.20;;;;;;;14.80;nan;99740.06;4910922;29;20188;-77
2023/03/29 08:24:35;;;;;;;2.85;1.45;;;;;;;14.87;nan;99739.56;4909747;29;20209;-77
2023/03/29 08:27:10;;;;;;;2.00;1.60;;;;;;;14.93;nan;99745.22;4908739;29;20198;-79
2023/03/29 08:29:35;;;;;;;2.70;1.63;;;;;;;14.99;nan;99747.38;4910726;29;20197;-79
2023/03/29 08:32:01;;;;;;;1.70;1.60;;;;;;;15.05;nan;99741.56;4920756;29;21106;-77
2023/03/29 08:34:30;;;;;;;2.33;1.65;;;;;;;15.15;nan;99740.81;4917513;29;20231;-78
2023/03/29 08:37:18;;;;;;;1.55;1.38;;;;;;;15.26;nan;99728.44;4915577;29;20187;-78
2023/03/29 08:39:45;;;;;;;3.25;1.50;;;;;;;15.35;nan;99739.22;4899856;29;20198;-79
2023/03/29 08:42:53;;;;;;;2.45;1.30;;;;;;;15.41;nan;99736.06;4892578;29;20250;-78
2023/03/29 08:45:32;;;;;;;1.20;1.10;;;;;;;15.40;nan;99729.09;4901762;29;20219;-79
2023/03/29 08:48:39;;;;;;;1.25;1.15;;;;;;;15.38;nan;99726.56;4903588;29;20221;-78
2023/03/29 08:51:24;;;;;;;1.15;1.05;;;;;;;15.39;nan;99716.81;4900526;29;20270;-78
2023/03/29 08:54:06;;;;;;;2.85;1.25;;;;;;;15.42;nan;99716.59;4905891;29;20195;-79
2023/03/29 08:56:53;;;;;;;2.50;2.30;;;;;;;15.48;nan;99713.44;4904386;29;20199;-80
2023/03/29 08:59:29;;;;;;;2.03;1.92;;;;;;;15.51;nan;99718.47;4919968;29;20205;-80
2023/03/29 09:01:58;;;;;;;2.25;2.05;;;;;;;15.57;nan;99722.41;4916088;29;20188;-78
2023/03/29 09:04:31;;;;;;;2.25;1.38;;;;;;;15.59;nan;99726.63;4882063;29;20439;-80
2023/03/29 09:07:23;;;;;;;2.05;1.70;;;;;;;15.62;nan;99723.72;4896338;29;20211;-81
2023/03/29 09:09:49;;;;;;;2.03;1.60;;;;;;;15.63;nan;99727.19;4910579;29;20189;-79
2023/03/29 09:12:48;;;;;;;2.08;1.52;;;;;;;15.66;nan;99714.56;4918551;29;20192;-79
2023/03/29 09:15:25;;;;;;;1.33;1.20;;;;;;;15.67;nan;99710.94;4919686;29;20253;-80
2023/03/29 09:18:50;;;;;;;2.70;1.92;;;;;;;15.72;nan;99712.41;4898292;29;20820;-79
2023/03/29 09:21:28;;;;;;;3.90;1.50;;;;;;;15.75;nan;99717.44;4905370;29;20193;-78
2023/03/29 09:24:07;;;;;;;2.85;1.50;;;;;;;15.79;nan;99717.03;4901602;29;20704;-80
2023/03/29 09:27:04;;;;;;;2.13;1.40;;;;;;;15.80;nan;99718.75;4903326;29;20197;-80
2023/03/29 09:29:56;;;;;;;1.63;1.40;;;;;;;15.85;nan;99713.03;4916679;29;20275;-79
2023/03/29 09:32:59;;;;;;;2.45;1.98;;;;;;;15.88;nan;99715.47;4902706;29;20187;-80
2023/03/29 09:36:11;;;;;;;3.63;1.45;;;;;;;15.90;nan;99717.00;4911870;29;20235;-81
2023/03/29 09:38:41;;;;;;;2.10;1.83;;;;;;;15.93;nan;99715.88;4889568;29;20224;-78
2023/03/29 09:41:19;;;;;;;5.38;1.48;;;;;;;16.01;nan;99709.94;4893380;29;20688;-78
2023/03/29 09:43:45;;;;;;;2.00;1.27;;;;;;;16.07;nan;99709.44;4895646;29;20198;-78
2023/03/29 09:46:23;;;;;;;2.35;1.30;;;;;;;16.17;nan;99707.66;4906617;29;20318;-78
2023/03/29 09:48:50;;;;;;;1.50;1.20;;;;;;;16.26;nan;99716.66;4899085;29;20224;-79
2023/03/29 09:51:18;;;;;;;1.65;1.42;;;;;;;16.35;nan;99715.88;4916257;29;20223;-80
2023/03/29 09:53:45;;;;;;;2.78;1.40;;;;;;;16.42;nan;99709.06;4899636;29;20256;-78
2023/03/29 09:56:34;;;;;;;1.48;1.23;;;;;;;16.43;nan;99710.75;4916478;29;20212;-78
2023/03/29 09:59:11;;;;;;;1.40;1.30;;;;;;;16.48;nan;99705.88;4903720;29;20203;-78
2023/03/29 10:02:05;;;;;;;1.63;1.30;;;;;;;16.51;nan;99702.13;4911756;29;20204;-80
2023/03/29 10:04:34;;;;;;;1.48;1.10;;;;;;;16.54;nan;99694.72;4907761;29;20217;-79
2023/03/29 10:07:05;;;;;;;5.40;1.70;;;;;;;16.57;nan;99683.03;4918058;29;20205;-79
2023/03/29 10:09:31;;;;;;;4.22;1.10;;;;;;;16.57;nan;99689.16;4906349;29;20244;-81
2023/03/29 10:12:11;;;;;;;1.30;1.20;;;;;;;16.60;nan;99680.94;4921373;29;20298;-81
2023/03/29 10:14:47;;;;;;;1.58;1.48;;;;;;;16.62;nan;99686.13;4910591;29;20236;-81
2023/03/29 10:17:17;;;;;;;1.80;1.70;;;;;;;16.64;nan;99680.69;4908058;29;20212;-78
2023/03/29 10:19:51;;;;;;;4.57;2.00;;;;;;;16.65;nan;99683.19;4906776;29;20310;-78
2023/03/29 10:22:21;;;;;;;1.27;1.17;;;;;;;16.67;nan;99678.59;4905262;29;20219;-78
2023/03/29 10:24:52;;;;;;;1.67;1.50;;;;;;;16.64;nan;99680.69;4904389;29;20208;-78
2023/03/29 10:27:42;;;;;;;1.85;1.20;;;;;;;16.62;nan;99685.28;4905417;29;20216;-78
2023/03/29 10:30:11;;;;;;;1.42;1.20;;;;;;;16.59;nan;99691.69;4905417;29;20216;-79
2023/03/29 10:32:38;;;;;;;1.73;1.40;;;;;;;16.61;nan;99684.44;4906420;29;20217;-78
2023/03/29 10:35:20;;;;;;;1.50;1.17;;;;;;;16.62;nan;99679.97;4907147;29;20242;-81
2023/03/29 10:37:50;;;;;;;3.85;1.70;;;;;;;16.64;nan;99681.53;4905589;29;20489;-79
2023/03/29 10:40:24;;;;;;;2.38;1.70;;;;;;;16.65;nan;99666.44;4904018;29;20207;-81
2023/03/29 10:42:50;;;;;;;2.17;1.85;;;;;;;16.67;nan;99667.16;4902859;29;20199;-78
2023/03/29 10:45:24;;;;;;;2.35;1.45;;;;;;;16.72;nan;99671.06;4898791;29;20279;-78
2023/03/29 10:47:50;;;;;;;1.80;1.45;;;;;;;16.77;nan;99670.72;4897994;29;20288;-77
2023/03/29 10:50:16;;;;;;;4.10;1.60;;;;;;;16.79;nan;99658.97;4896541;29;20205;-80
2023/03/29 10:52:41;;;;;;;5.43;3.20;;;;;;;16.81;nan;99659.66;4898865;29;20202;-81
2023/03/29 10:55:11;;;;;;;3.37;1.77;;;;;;;16.86;nan;99658.44;4900248;29;20494;-78
2023/03/29 10:58:00;;;;;;;3.40;1.35;;;;;;;16.92;nan;99649.91;4896245;29;20191;-79
2023/03/29 11:00:50;;;;;;;1.17;1.00;;;;;;;16.97;nan;99640.56;4900665;29;20746;-80
2023/03/29 11:03:25;;;;;;;3.05;1.58;;;;;;;17.09;nan;99640.44;4896563;29;20737;-80
2023/03/29 11:06:13;;;;;;;1.70;1.25;;;;;;;17.23;nan;99638.22;4898448;29;20210;-80
2023/03/29 11:08:44;;;;;;;2.78;1.42;;;;;;;17.38;nan;99633.31;4900561;29;20686;-79
2023/03/29 11:11:35;;;;;;;1.85;1.38;;;;;;;17.52;nan;99632.03;4901932;29;21585;-79
2023/03/29 11:14:33;;;;;;;1.77;1.27;;;;;;;17.66;nan;99622.78;4901071;29;20193;-78
2023/03/29 11:17:11;;;;;;;1.33;1.20;;;;;;;17.79;nan;99625.19;4898489;29;21291;-78
2023/03/29 11:20:00;;;;;;;1.37;1.20;;;;;;;17.96;nan;99628.91;4898930;29;21027;-83
2023/03/29 11:22:45;;;;;;;3.17;1.63;;;;;;;18.07;nan;99624.28;4898111;29;20459;-82
2023/03/29 11:25:17;;;;;;;3.70;1.80;;;;;;;18.10;nan;99629.28;4900738;29;20503;-82
2023/03/29 11:27:55;;;;;;;2.40;1.40;;;;;;;18.19;nan;99624.91;4900721;29;20451;-81
2023/03/29 11:30:27;;;;;;;2.60;1.50;;;;;;;18.25;nan;99627.00;4901649;29;20434;-82
2023/03/29 11:33:04;;;;;;;1.83;1.33;;;;;;;18.34;nan;99617.31;4899701;29;20943;-81
2023/03/29 11:36:08;;;;;;;4.30;2.50;;;;;;;18.41;nan;99621.03;4898273;29;20528;-80
2023/03/29 11:39:10;;;;;;;1.97;1.60;;;;;;;18.48;nan;99624.78;4899930;29;21190;-80
2023/03/29 11:41:41;;;;;;;4.70;2.40;;;;;;;18.63;nan;99626.94;4861121;29;20443;-79
2023/03/29 11:44:26;;;;;;;2.33;1.30;;;;;;;18.79;nan;99620.03;4892464;29;20481;-79
2023/03/29 11:46:59;;;;;;;2.33;1.47;;;;;;;18.96;nan;99622.88;4900469;29;20478;-80
2023/03/29 11:49:34;;;;;;;3.43;1.50;;;;;;;19.11;nan;99623.16;4900936;29;20566;-79
2023/03/29 11:52:05;;;;;;;;;;;;;;;19.26;nan;99615.50;4897298;29;20388;-80
2023/03/29 11:54:40;;;;;;;;;;;;;;;19.38;nan;99611.59;4895457;29;19923;-80
2023/03/29 11:57:29;;;;;;;5.57;1.77;;;;;;;19.45;nan;99597.50;4897084;29;20905;-80
2023/03/29 12:00:11;;;;;;;3.22;1.40;;;;;;;19.51;nan;99595.22;4900990;29;20670;-81
2023/03/29 12:02:57;;;;;;;3.38;1.55;;;;;;;19.55;nan;99596.56;4915723;29;20512;-81
2023/03/29 12:05:58;;;;;;;4.35;1.98;;;;;;;19.54;nan;99590.41;4898559;29;20484;-80
2023/03/29 12:08:30;;;;;;;5.57;1.77;;;;;;;19.57;nan;99587.41;4897557;29;20448;-82
2023/03/29 12:11:05;;;;;;;3.70;2.13;;;;;;;19.59;nan;99590.78;4900958;29;20417;-79
2023/03/29 12:13:37;;;;;;;2.53;2.03;;;;;;;19.59;nan;99588.09;4901745;29;21707;-80
2023/03/29 12:16:15;;;;;;;2.60;1.97;;;;;;;19.58;nan;99574.94;4900757;29;20617;-78
2023/03/29 12:18:54;;;;;;;4.50;3.00;;;;;;;19.55;nan;99575.25;4901440;29;20456;-80
2023/03/29 12:21:25;;;;;;;2.00;1.77;;;;;;;19.55;nan;99575.25;4906652;29;20554;-80
2023/03/29 12:23:51;;;;;;;3.50;1.77;;;;;;;19.56;nan;99577.75;4899431;29;21053;-78
2023/03/29 12:26:33;;;;;;;1.77;1.53;;;;;;;19.57;nan;99574.09;4901636;29;20595;-79